Terminal Aerodrome Forecast
Issued by NWS Goodland, KS

Home | Current Version | Previous Version | Text Only | Print | Product List | Glossary On
Versions: 1 2 3 4 5 6 7 8 9 10 11 12 13 14 15
000
FTUS43 KGLD 132300
TAFGLD
TAF
KGLD 132340Z 1400/1424 36026G34KT 3SM -SN OVC010
      TEMPO 1400/1403 1SM -SN
     FM140600 35020G28KT 5SM -SN OVC015
     FM140900 34015G23KT P6SM BKN025
     FM141500 33018G26KT P6SM SCT030=

USA.gov is the U.S. government's official web portal to all federal, state and local government web resources and services.